createdAt,value
2018-06-12T00:00:38.550Z,17.19
2018-06-12T00:03:07.338Z,17.14
2018-06-12T00:05:36.004Z,17.16
2018-06-12T00:08:04.716Z,17.16
2018-06-12T00:10:33.263Z,17.10
2018-06-12T00:13:01.887Z,17.04
2018-06-12T00:15:30.542Z,16.98
2018-06-12T00:17:59.745Z,16.97
2018-06-12T00:20:28.338Z,16.93
2018-06-12T00:22:57.580Z,16.90
2018-06-12T00:25:26.150Z,16.86
2018-06-12T00:27:54.796Z,16.81
2018-06-12T00:30:23.458Z,16.83
2018-06-12T00:32:52.247Z,16.78
2018-06-12T00:35:20.903Z,16.72
2018-06-12T00:37:49.553Z,16.66
2018-06-12T00:40:18.189Z,16.59
2018-06-12T00:42:46.874Z,16.58
2018-06-12T00:45:15.504Z,16.56
2018-06-12T00:47:44.086Z,16.50
2018-06-12T00:50:12.650Z,16.46
2018-06-12T00:52:43.405Z,16.40
2018-06-12T00:55:12.061Z,16.35
2018-06-12T00:57:40.633Z,16.33
2018-06-12T01:00:10.185Z,16.31
2018-06-12T01:02:38.824Z,16.27
2018-06-12T01:05:06.993Z,16.25
2018-06-12T01:07:35.620Z,16.25
2018-06-12T01:10:04.281Z,16.23
2018-06-12T01:12:33.710Z,16.22
2018-06-12T01:15:02.310Z,16.21
2018-06-12T01:17:30.883Z,16.18
2018-06-12T01:19:59.477Z,16.15
2018-06-12T01:22:31.269Z,16.13
2018-06-12T01:24:59.934Z,16.07
2018-06-12T01:27:28.613Z,16.05
2018-06-12T01:29:57.161Z,16.03
2018-06-12T01:32:25.769Z,16.02
2018-06-12T01:34:54.328Z,15.98
2018-06-12T01:37:22.964Z,15.99
2018-06-12T01:39:51.620Z,15.95
2018-06-12T01:42:20.217Z,15.91
2018-06-12T01:44:48.902Z,15.92
2018-06-12T01:47:17.688Z,15.87
2018-06-12T01:49:46.234Z,15.82
2018-06-12T01:52:14.781Z,15.81
2018-06-12T01:54:43.654Z,15.80
2018-06-12T01:57:12.235Z,15.76
2018-06-12T01:59:40.812Z,15.76
2018-06-12T02:02:09.402Z,15.73
2018-06-12T02:04:39.134Z,15.72
2018-06-12T02:07:07.847Z,15.71
2018-06-12T02:09:36.944Z,15.66
2018-06-12T02:12:05.510Z,15.59
2018-06-12T02:14:34.873Z,15.59
2018-06-12T02:17:03.579Z,15.56
2018-06-12T02:19:32.125Z,15.56
2018-06-12T02:22:00.792Z,15.56
2018-06-12T02:24:29.349Z,15.59
2018-06-12T02:26:58.005Z,15.60
2018-06-12T02:29:26.620Z,15.64
2018-06-12T02:31:55.273Z,15.61
2018-06-12T02:34:23.861Z,15.61
2018-06-12T02:36:52.429Z,15.57
2018-06-12T02:39:21.053Z,15.56
2018-06-12T02:41:49.704Z,15.61
2018-06-12T02:44:18.312Z,15.57
2018-06-12T02:46:47.247Z,15.53
2018-06-12T02:49:15.894Z,15.49
2018-06-12T02:51:44.568Z,15.47
2018-06-12T02:54:13.140Z,15.46
2018-06-12T02:56:41.769Z,15.38
2018-06-12T02:59:10.406Z,15.31
2018-06-12T03:01:39.019Z,15.27
2018-06-12T03:04:07.701Z,15.29
2018-06-12T03:06:36.278Z,15.29
2018-06-12T03:09:07.582Z,15.30
2018-06-12T03:11:36.142Z,15.31
2018-06-12T03:14:04.786Z,15.33
2018-06-12T03:16:33.336Z,15.31
2018-06-12T03:19:02.149Z,15.25
2018-06-12T03:21:31.477Z,15.24
2018-06-12T03:24:00.079Z,15.26
2018-06-12T03:26:28.732Z,15.24
2018-06-12T03:28:57.308Z,15.18
2018-06-12T03:31:26.600Z,15.18
2018-06-12T03:33:55.206Z,15.19
2018-06-12T03:36:27.770Z,15.16
2018-06-12T03:38:56.366Z,15.16
2018-06-12T03:41:25.074Z,15.12
2018-06-12T03:43:53.742Z,15.14
2018-06-12T03:46:23.092Z,15.16
2018-06-12T03:48:52.011Z,15.14
2018-06-12T03:51:20.729Z,15.11
2018-06-12T03:53:49.275Z,15.14
2018-06-12T03:56:17.808Z,15.13
2018-06-12T03:58:46.475Z,15.19
2018-06-12T04:01:15.053Z,15.23
2018-06-12T04:06:17.331Z,15.23
2018-06-12T04:08:46.077Z,15.26
2018-06-12T04:11:14.680Z,15.28
2018-06-12T04:13:43.622Z,15.28
2018-06-12T04:16:12.184Z,15.33
2018-06-12T04:18:40.798Z,15.33
2018-06-12T04:21:09.465Z,15.30
2018-06-12T04:23:40.295Z,15.29
2018-06-12T04:26:09.093Z,15.32
2018-06-12T04:28:37.726Z,15.30
2018-06-12T04:31:06.367Z,15.32
2018-06-12T04:33:34.948Z,15.28
2018-06-12T04:36:03.534Z,15.25
2018-06-12T04:38:32.253Z,15.24
2018-06-12T04:41:01.006Z,15.28
2018-06-12T04:43:29.693Z,15.23
2018-06-12T04:45:58.371Z,15.25
2018-06-12T04:48:26.937Z,15.29
2018-06-12T04:50:55.537Z,15.32
2018-06-12T04:53:24.143Z,15.32
2018-06-12T04:55:52.774Z,15.28
2018-06-12T04:58:21.398Z,15.22
2018-06-12T05:00:49.964Z,15.29
2018-06-12T05:03:19.347Z,15.26
2018-06-12T05:06:01.103Z,15.29
2018-06-12T05:08:29.665Z,15.34
2018-06-12T05:10:58.211Z,15.34
2018-06-12T05:13:26.769Z,15.33
2018-06-12T05:15:55.400Z,15.37
2018-06-12T05:18:23.965Z,15.43
2018-06-12T05:20:52.574Z,15.44
2018-06-12T05:23:21.181Z,15.49
2018-06-12T05:25:49.795Z,15.54
2018-06-12T05:28:18.363Z,15.51
2018-06-12T05:30:47.723Z,15.56
2018-06-12T05:33:16.321Z,15.71
2018-06-12T05:35:44.898Z,15.81
2018-06-12T05:38:13.479Z,15.84
2018-06-12T05:40:42.032Z,15.84
2018-06-12T05:43:10.862Z,15.81
2018-06-12T05:45:39.569Z,15.86
2018-06-12T05:48:08.637Z,15.98
2018-06-12T05:50:37.241Z,16.04
2018-06-12T05:53:05.845Z,16.09
2018-06-12T05:55:34.509Z,16.11
2018-06-12T05:58:03.327Z,16.08
2018-06-12T06:00:32.137Z,16.13
2018-06-12T06:03:00.813Z,16.27
2018-06-12T06:05:30.221Z,16.34
2018-06-12T06:08:00.089Z,16.48
2018-06-12T06:10:28.781Z,16.43
2018-06-12T06:12:57.481Z,16.46
2018-06-12T06:15:26.062Z,16.38
2018-06-12T06:17:54.940Z,16.36
2018-06-12T06:20:24.368Z,16.37
2018-06-12T06:22:53.552Z,16.42
2018-06-12T06:25:22.129Z,16.54
2018-06-12T06:27:50.725Z,16.56
2018-06-12T06:30:19.372Z,16.64
2018-06-12T06:32:47.910Z,16.71
2018-06-12T06:35:16.592Z,16.79
2018-06-12T06:37:45.298Z,16.69
2018-06-12T06:40:13.921Z,16.80
2018-06-12T06:42:42.505Z,16.90
2018-06-12T06:45:11.249Z,16.97
2018-06-12T06:47:39.911Z,17.00
2018-06-12T06:50:08.549Z,17.13
2018-06-12T06:52:37.144Z,17.25
2018-06-12T06:55:05.954Z,17.22
2018-06-12T06:57:34.642Z,17.07
2018-06-12T07:00:03.491Z,17.00
2018-06-12T07:02:32.183Z,16.88
2018-06-12T07:05:01.045Z,16.85
2018-06-12T07:07:29.598Z,16.82
2018-06-12T07:09:58.324Z,16.80
2018-06-12T07:12:26.885Z,16.75
2018-06-12T07:14:55.495Z,16.71
2018-06-12T07:17:24.061Z,16.79
2018-06-12T07:19:52.713Z,16.91
2018-06-12T07:22:21.389Z,16.96
2018-06-12T07:24:50.081Z,16.99
2018-06-12T07:27:18.864Z,17.06
2018-06-12T07:29:48.214Z,17.22
2018-06-12T07:32:16.851Z,17.40
2018-06-12T07:34:45.609Z,17.58
2018-06-12T07:37:14.257Z,17.67
2018-06-12T07:39:42.930Z,17.73
2018-06-12T07:42:11.602Z,17.77
2018-06-12T07:44:40.198Z,17.86
2018-06-12T07:47:09.621Z,18.01
2018-06-12T07:49:38.354Z,18.15
2018-06-12T07:52:07.533Z,18.16
2018-06-12T07:54:36.146Z,18.12
2018-06-12T07:57:04.981Z,18.03
2018-06-12T07:59:34.579Z,18.22
2018-06-12T08:02:03.251Z,18.33
2018-06-12T08:04:31.995Z,18.19
2018-06-12T08:07:00.660Z,18.13
2018-06-12T08:09:29.206Z,18.27
2018-06-12T08:11:58.010Z,18.38
2018-06-12T08:14:26.605Z,18.32
2018-06-12T08:16:55.229Z,18.35
2018-06-12T08:19:23.971Z,18.49
2018-06-12T08:21:53.225Z,18.68
2018-06-12T08:24:21.893Z,18.83
2018-06-12T08:26:50.513Z,18.86
2018-06-12T08:29:19.171Z,18.75
2018-06-12T08:31:47.804Z,18.75
2018-06-12T08:34:16.512Z,18.86
2018-06-12T08:36:45.169Z,18.93
2018-06-12T08:39:13.940Z,18.87
2018-06-12T08:41:42.639Z,18.78
2018-06-12T08:44:11.316Z,18.73
2018-06-12T08:46:40.008Z,18.88
2018-06-12T08:49:08.588Z,19.15
2018-06-12T08:51:37.152Z,19.30
2018-06-12T08:54:05.747Z,19.42
2018-06-12T08:56:34.363Z,19.33
2018-06-12T08:59:02.945Z,19.27
2018-06-12T09:01:31.605Z,19.31
2018-06-12T09:04:00.209Z,19.45
2018-06-12T09:06:28.888Z,19.41
2018-06-12T09:08:57.613Z,19.38
2018-06-12T09:11:26.370Z,19.37
2018-06-12T09:13:54.949Z,19.39
2018-06-12T09:16:23.624Z,19.42
2018-06-12T09:18:52.928Z,19.55
2018-06-12T09:21:21.534Z,19.52
2018-06-12T09:26:20.768Z,19.73
2018-06-12T09:28:49.487Z,19.83
2018-06-12T09:31:18.121Z,20.00
2018-06-12T09:33:46.653Z,20.02
2018-06-12T09:36:20.628Z,19.83
2018-06-12T09:38:49.477Z,19.86
2018-06-12T09:41:18.674Z,19.92
2018-06-12T09:43:48.086Z,20.07
2018-06-12T09:46:17.400Z,20.11
2018-06-12T09:48:46.060Z,19.85
2018-06-12T09:51:14.628Z,19.77
2018-06-12T09:53:44.335Z,19.83
2018-06-12T09:56:12.978Z,19.79
2018-06-12T09:58:41.547Z,19.85
2018-06-12T10:01:15.440Z,19.89
2018-06-12T10:03:44.052Z,19.92
2018-06-12T10:06:12.649Z,19.97
2018-06-12T10:08:41.492Z,20.03
2018-06-12T10:11:10.095Z,19.97
2018-06-12T10:13:38.725Z,19.84
2018-06-12T10:16:07.571Z,19.46
2018-06-12T10:18:36.266Z,19.36
2018-06-12T10:21:04.958Z,19.40
2018-06-12T10:23:33.623Z,19.46
2018-06-12T10:26:02.206Z,19.33
2018-06-12T10:28:30.803Z,19.27
2018-06-12T10:30:59.718Z,19.22
2018-06-12T10:33:28.369Z,19.07
2018-06-12T10:35:57.155Z,19.04
2018-06-12T10:38:25.775Z,19.02
2018-06-12T10:40:54.427Z,19.01
2018-06-12T10:43:23.289Z,19.01
2018-06-12T10:45:51.920Z,18.88
2018-06-12T10:48:20.592Z,18.84
2018-06-12T10:50:52.586Z,18.83
2018-06-12T10:53:21.220Z,18.78
2018-06-12T10:55:49.870Z,18.78
2018-06-12T10:58:18.514Z,18.74
2018-06-12T11:00:47.069Z,18.80
2018-06-12T11:03:15.649Z,18.78
2018-06-12T11:05:44.368Z,18.73
2018-06-12T11:08:12.957Z,18.76
2018-06-12T11:10:41.670Z,18.86
2018-06-12T11:13:10.376Z,18.80
2018-06-12T11:15:39.010Z,18.85
2018-06-12T11:18:07.685Z,18.82
2018-06-12T11:20:36.278Z,18.91
2018-06-12T11:23:05.033Z,18.97
2018-06-12T11:25:33.753Z,19.09
2018-06-12T11:28:02.416Z,19.23
2018-06-12T11:30:31.638Z,19.47
2018-06-12T11:33:00.261Z,19.60
2018-06-12T11:35:28.920Z,19.81
2018-06-12T11:37:59.967Z,19.86
2018-06-12T11:40:28.637Z,19.94
2018-06-12T11:42:57.170Z,20.04
2018-06-12T11:45:25.739Z,19.97
2018-06-12T11:47:54.400Z,19.97
2018-06-12T11:50:23.115Z,19.93
2018-06-12T11:52:51.765Z,19.97
2018-06-12T11:55:20.334Z,20.13
2018-06-12T11:57:48.896Z,20.06
2018-06-12T12:00:17.492Z,19.93
2018-06-12T12:02:46.091Z,19.98
2018-06-12T12:05:14.723Z,20.02
2018-06-12T12:07:43.285Z,19.92
2018-06-12T12:10:11.956Z,19.91
2018-06-12T12:12:40.800Z,19.88
2018-06-12T12:15:09.524Z,19.93
2018-06-12T12:17:38.210Z,19.98
2018-06-12T12:20:06.831Z,19.98
2018-06-12T12:22:35.372Z,20.08
2018-06-12T12:25:05.057Z,20.20
2018-06-12T12:27:33.636Z,20.13
2018-06-12T12:30:02.257Z,20.03
2018-06-12T12:32:30.850Z,19.86
2018-06-12T12:34:59.448Z,19.84
2018-06-12T12:37:28.471Z,19.73
2018-06-12T12:39:57.119Z,19.67
2018-06-12T12:42:25.685Z,19.66
2018-06-12T12:44:54.379Z,19.60
2018-06-12T12:47:23.149Z,19.59
2018-06-12T12:49:52.620Z,19.47
2018-06-12T12:52:21.258Z,19.45
2018-06-12T12:54:49.830Z,19.54
2018-06-12T12:57:18.428Z,19.61
2018-06-12T12:59:47.001Z,19.53
2018-06-12T13:02:16.030Z,19.44
2018-06-12T13:04:44.601Z,19.36
2018-06-12T13:07:13.653Z,19.27
2018-06-12T13:09:42.249Z,19.18
2018-06-12T13:12:10.845Z,19.24
2018-06-12T13:14:39.761Z,19.22
2018-06-12T13:17:30.040Z,19.27
2018-06-12T13:19:58.728Z,19.34
2018-06-12T13:22:27.357Z,19.30
2018-06-12T13:24:57.342Z,19.24
2018-06-12T13:27:26.014Z,19.19
2018-06-12T13:29:54.755Z,19.28
2018-06-12T13:32:35.922Z,19.31
2018-06-12T13:35:04.613Z,19.34
2018-06-12T13:37:33.822Z,19.48
2018-06-12T13:40:02.615Z,19.62
2018-06-12T13:42:39.767Z,19.63
2018-06-12T13:45:08.676Z,19.67
2018-06-12T13:47:37.297Z,19.75
2018-06-12T13:50:05.965Z,19.83
2018-06-12T13:52:35.355Z,19.80
2018-06-12T13:55:03.944Z,19.78
2018-06-12T13:57:32.574Z,19.85
2018-06-12T14:00:01.254Z,19.81
2018-06-12T14:02:30.868Z,19.91
2018-06-12T14:04:59.470Z,19.93
2018-06-12T14:07:28.154Z,20.12
2018-06-12T14:09:56.837Z,20.30
2018-06-12T14:12:25.497Z,20.39
2018-06-12T14:14:54.072Z,20.53
2018-06-12T14:17:22.620Z,20.71
2018-06-12T14:19:51.264Z,20.82
2018-06-12T14:22:19.948Z,21.05
2018-06-12T14:24:48.637Z,21.32
2018-06-12T14:27:17.836Z,21.78
2018-06-12T14:29:46.427Z,22.29
2018-06-12T14:32:15.160Z,22.59
2018-06-12T14:34:43.893Z,22.63
2018-06-12T14:37:12.571Z,22.59
2018-06-12T14:39:41.142Z,22.35
2018-06-12T14:42:10.535Z,22.20
2018-06-12T14:44:41.066Z,22.18
2018-06-12T14:47:10.510Z,22.18
2018-06-12T14:49:39.198Z,22.60
2018-06-12T14:52:08.187Z,22.68
2018-06-12T14:54:36.885Z,22.64
2018-06-12T14:57:05.741Z,22.57
2018-06-12T14:59:51.437Z,22.49
2018-06-12T15:02:20.395Z,22.22
2018-06-12T15:04:49.021Z,22.21
2018-06-12T15:07:18.214Z,21.98
2018-06-12T15:09:46.899Z,21.78
2018-06-12T15:12:15.582Z,21.59
2018-06-12T15:14:44.156Z,21.55
2018-06-12T15:17:12.896Z,21.47
2018-06-12T15:19:41.624Z,21.40
2018-06-12T15:22:10.754Z,21.24
2018-06-12T15:24:39.419Z,21.03
2018-06-12T15:27:08.028Z,20.86
2018-06-12T15:29:37.459Z,20.71
2018-06-12T15:32:13.695Z,20.55
2018-06-12T15:34:43.482Z,20.52
2018-06-12T15:37:41.240Z,20.54
2018-06-12T15:40:09.828Z,20.61
2018-06-12T15:42:38.487Z,20.52
2018-06-12T15:45:07.151Z,20.27
2018-06-12T15:47:35.793Z,20.12
2018-06-12T15:50:04.537Z,20.06
2018-06-12T15:52:33.108Z,20.05
2018-06-12T15:55:01.751Z,20.03
2018-06-12T15:57:30.500Z,20.00
2018-06-12T15:59:59.148Z,19.84
2018-06-12T16:02:27.841Z,19.78
2018-06-12T16:04:56.506Z,19.74
2018-06-12T16:07:25.150Z,19.75
2018-06-12T16:09:53.893Z,19.72
2018-06-12T16:12:37.119Z,19.67
2018-06-12T16:15:05.789Z,19.53
2018-06-12T16:17:34.444Z,19.50
2018-06-12T16:20:03.239Z,19.44
2018-06-12T16:22:32.702Z,19.34
2018-06-12T16:25:01.296Z,19.27
2018-06-12T16:27:30.797Z,19.22
2018-06-12T16:30:00.342Z,19.14
2018-06-12T16:32:29.045Z,19.13
2018-06-12T16:35:00.762Z,19.21
2018-06-12T16:37:29.442Z,19.15
2018-06-12T16:39:58.089Z,19.12
2018-06-12T16:42:26.770Z,19.14
2018-06-12T16:44:57.651Z,19.14
2018-06-12T16:47:26.337Z,19.05
2018-06-12T16:49:56.563Z,18.94
2018-06-12T16:52:25.187Z,18.88
2018-06-12T16:54:53.778Z,18.82
2018-06-12T16:57:22.626Z,18.74
2018-06-12T16:59:51.481Z,18.68
2018-06-12T17:02:20.147Z,18.62
2018-06-12T17:04:48.904Z,18.51
2018-06-12T17:07:17.529Z,18.46
2018-06-12T17:09:46.225Z,18.38
2018-06-12T17:12:17.317Z,18.34
2018-06-12T17:14:46.167Z,18.37
2018-06-12T17:17:20.068Z,18.42
2018-06-12T17:19:48.683Z,18.43
2018-06-12T17:22:27.571Z,18.40
2018-06-12T17:25:03.980Z,18.38
2018-06-12T17:27:34.501Z,18.35
2018-06-12T17:30:03.166Z,18.28
2018-06-12T17:32:31.817Z,18.24
2018-06-12T17:35:00.517Z,18.17
2018-06-12T17:37:29.359Z,18.10
2018-06-12T17:39:58.008Z,18.07
2018-06-12T17:42:26.678Z,18.08
2018-06-12T17:44:55.390Z,18.03
2018-06-12T17:47:24.033Z,18.05
2018-06-12T17:49:52.833Z,18.11
2018-06-12T17:52:22.033Z,18.12
2018-06-12T17:54:50.672Z,18.12
2018-06-12T17:57:19.370Z,18.05
2018-06-12T17:59:48.004Z,18.04
2018-06-12T18:02:17.990Z,18.03
2018-06-12T18:04:50.021Z,17.96
2018-06-12T18:07:18.586Z,17.88
2018-06-12T18:09:47.170Z,17.90
2018-06-12T18:12:24.333Z,17.92
2018-06-12T18:14:56.661Z,17.82
2018-06-12T18:17:25.397Z,17.69
2018-06-12T18:20:12.235Z,17.59
2018-06-12T18:22:40.901Z,17.46
2018-06-12T18:25:09.680Z,17.40
2018-06-12T18:27:38.988Z,17.37
2018-06-12T18:30:11.543Z,17.29
2018-06-12T18:32:42.938Z,17.21
2018-06-12T18:35:13.824Z,17.16
2018-06-12T18:37:42.902Z,17.04
2018-06-12T18:40:11.523Z,16.94
2018-06-12T18:42:40.209Z,16.89
2018-06-12T18:45:09.120Z,16.78
2018-06-12T18:47:37.674Z,16.81
2018-06-12T18:50:06.298Z,16.79
2018-06-12T18:52:35.292Z,16.76
2018-06-12T18:55:04.604Z,16.74
2018-06-12T18:57:33.281Z,16.68
2018-06-12T19:00:01.866Z,16.64
2018-06-12T19:02:30.622Z,16.67
2018-06-12T19:05:20.795Z,16.64
2018-06-12T19:07:50.094Z,16.65
2018-06-12T19:10:20.385Z,16.59
2018-06-12T19:12:50.304Z,16.50
2018-06-12T19:15:20.482Z,16.45
2018-06-12T19:18:02.059Z,16.48
2018-06-12T19:20:39.791Z,16.49
2018-06-12T19:23:08.472Z,16.46
2018-06-12T19:25:37.065Z,16.41
2018-06-12T19:28:05.800Z,16.42
2018-06-12T19:30:35.096Z,16.44
2018-06-12T19:33:04.987Z,16.45
2018-06-12T19:42:58.959Z,16.36
2018-06-12T19:45:27.691Z,16.39
2018-06-12T19:47:56.697Z,16.41
2018-06-12T19:50:27.389Z,16.42
2018-06-12T19:52:58.165Z,16.42
2018-06-12T19:55:26.969Z,16.50
2018-06-12T19:57:55.755Z,16.52
2018-06-12T20:00:24.552Z,16.54
2018-06-12T20:02:53.190Z,16.54
2018-06-12T20:05:21.848Z,16.55
2018-06-12T23:02:20.192Z,14.13
2018-06-12T23:04:48.837Z,14.08
2018-06-12T23:07:17.536Z,13.99
2018-06-12T23:09:46.195Z,13.95
2018-06-12T23:12:14.759Z,13.92
2018-06-12T23:14:43.343Z,13.89
2018-06-12T23:17:12.046Z,13.86
2018-06-12T23:19:51.799Z,13.82
2018-06-12T23:22:20.320Z,13.78
2018-06-12T23:24:48.955Z,13.74
2018-06-12T23:27:17.560Z,13.71
2018-06-12T23:29:46.106Z,13.67
2018-06-12T23:32:14.701Z,13.65
2018-06-12T23:34:43.921Z,13.66
2018-06-12T23:37:12.576Z,13.65
2018-06-12T23:39:41.356Z,13.63
2018-06-12T23:42:10.068Z,13.62
2018-06-12T23:44:38.601Z,13.60
2018-06-12T23:47:07.242Z,13.58
2018-06-12T23:49:35.917Z,13.56
2018-06-12T23:52:04.524Z,13.53
2018-06-12T23:54:33.085Z,13.54
2018-06-12T23:57:01.817Z,13.57
2018-06-12T23:59:30.471Z,13.59
